createdAt,value
2019-05-14T00:01:31.989Z,21.17
2019-05-14T00:04:03.625Z,21.07
2019-05-14T00:06:35.633Z,20.20
2019-05-14T00:09:07.740Z,21.20
2019-05-14T00:11:41.856Z,23.20
2019-05-14T00:14:13.113Z,24.23
2019-05-14T00:16:44.959Z,26.83
2019-05-14T00:19:16.594Z,24.03
2019-05-14T00:21:48.743Z,24.20
2019-05-14T00:24:21.708Z,23.93
2019-05-14T00:26:53.696Z,23.47
2019-05-14T00:29:25.383Z,21.60
2019-05-14T00:31:57.563Z,21.17
2019-05-14T00:34:31.551Z,23.07
2019-05-14T00:37:03.157Z,22.40
2019-05-14T00:39:37.143Z,24.83
2019-05-14T00:42:09.142Z,26.70
2019-05-14T00:44:53.757Z,26.50
2019-05-14T00:47:14.380Z,25.83
2019-05-14T00:49:46.144Z,26.20
2019-05-14T00:52:17.704Z,25.20
2019-05-14T00:54:49.490Z,26.00
2019-05-14T00:57:23.668Z,25.53
2019-05-14T00:59:55.145Z,25.80
2019-05-14T01:02:27.140Z,26.47
2019-05-14T01:04:58.970Z,25.63
2019-05-14T01:07:32.004Z,26.77
2019-05-14T01:10:03.873Z,26.30
2019-05-14T01:12:35.484Z,29.13
2019-05-14T01:15:10.799Z,27.40
2019-05-14T01:17:42.152Z,26.90
2019-05-14T01:20:14.143Z,28.70
2019-05-14T01:22:45.773Z,31.07
2019-05-14T01:25:17.396Z,30.30
2019-05-14T01:27:51.635Z,33.03
2019-05-14T01:30:22.782Z,30.30
2019-05-14T01:32:54.178Z,32.27
2019-05-14T01:35:26.212Z,29.13
2019-05-14T01:37:58.238Z,32.13
2019-05-14T01:40:31.504Z,30.63
2019-05-14T01:43:03.562Z,31.27
2019-05-14T01:45:35.229Z,30.37
2019-05-14T01:48:07.268Z,31.80
2019-05-14T01:50:41.415Z,29.53
2019-05-14T01:53:12.711Z,28.87
2019-05-14T01:55:44.492Z,27.57
2019-05-14T01:58:16.075Z,29.37
2019-05-14T02:00:48.114Z,29.43
2019-05-14T02:03:21.450Z,29.10
2019-05-14T02:05:53.199Z,31.77
2019-05-14T02:08:24.886Z,29.80
2019-05-14T02:10:56.382Z,26.97
2019-05-14T02:13:32.300Z,28.33
2019-05-14T02:16:07.198Z,30.00
2019-05-14T02:18:39.056Z,29.73
2019-05-14T02:21:11.804Z,27.77
2019-05-14T02:23:44.110Z,26.03
2019-05-14T02:26:16.152Z,28.47
2019-05-14T02:28:48.139Z,28.20
2019-05-14T02:31:20.418Z,27.67
2019-05-14T02:33:52.660Z,28.87
2019-05-14T02:36:24.825Z,28.70
2019-05-14T02:39:00.114Z,30.70
2019-05-14T02:41:30.338Z,31.20
2019-05-14T02:44:02.334Z,28.90
2019-05-14T02:46:34.379Z,30.10
2019-05-14T02:49:06.448Z,32.37
2019-05-14T02:51:39.164Z,30.30
2019-05-14T02:54:11.323Z,31.17
2019-05-14T02:56:49.470Z,27.97
2019-05-14T02:59:19.614Z,31.33
2019-05-14T03:01:51.127Z,29.53
2019-05-14T03:04:23.102Z,31.03
2019-05-14T03:06:59.218Z,31.47
2019-05-14T03:09:31.569Z,30.97
2019-05-14T03:12:03.543Z,31.40
2019-05-14T03:14:39.291Z,34.40
2019-05-14T03:17:10.668Z,32.10
2019-05-14T03:19:43.789Z,27.33
2019-05-14T03:22:27.587Z,29.37
2019-05-14T03:24:52.330Z,27.27
2019-05-14T03:27:24.412Z,28.97
2019-05-14T03:29:58.648Z,30.73
2019-05-14T03:32:41.710Z,29.17
2019-05-14T03:35:13.699Z,29.33
2019-05-14T03:37:44.108Z,29.23
2019-05-14T03:40:19.235Z,30.37
2019-05-14T03:42:49.709Z,32.67
2019-05-14T03:45:24.618Z,32.17
2019-05-14T03:47:59.176Z,33.60
2019-05-14T03:50:33.929Z,30.20
2019-05-14T03:53:05.580Z,31.97
2019-05-14T03:55:46.337Z,30.17
2019-05-14T03:58:30.059Z,29.13
2019-05-14T04:01:02.534Z,32.37
2019-05-14T04:03:39.947Z,33.43
2019-05-14T04:06:31.289Z,34.63
2019-05-14T04:09:10.993Z,34.00
2019-05-14T04:12:03.416Z,32.80
2019-05-14T04:14:39.662Z,32.90
2019-05-14T04:17:15.799Z,35.97
2019-05-14T04:19:49.945Z,37.63
2019-05-14T04:22:24.067Z,37.30
2019-05-14T04:24:59.402Z,38.97
2019-05-14T04:27:32.950Z,39.50
2019-05-14T04:30:09.275Z,40.33
2019-05-14T04:32:41.746Z,40.30
2019-05-14T04:35:13.721Z,38.27
2019-05-14T04:37:49.349Z,42.17
2019-05-14T04:40:19.237Z,40.33
2019-05-14T04:42:50.745Z,38.73
2019-05-14T04:45:22.907Z,37.50
2019-05-14T04:47:54.300Z,37.67
2019-05-14T04:50:29.455Z,38.50
2019-05-14T04:52:59.996Z,34.73
2019-05-14T04:55:32.112Z,35.83
2019-05-14T04:58:03.669Z,37.33
2019-05-14T05:00:35.062Z,37.73
2019-05-14T05:03:11.697Z,41.00
2019-05-14T05:05:42.199Z,36.80
2019-05-14T05:08:14.627Z,34.97
2019-05-14T05:10:49.464Z,37.10
2019-05-14T05:13:24.282Z,38.77
2019-05-14T05:15:59.490Z,40.33
2019-05-14T05:18:33.853Z,36.30
2019-05-14T05:21:11.548Z,35.43
2019-05-14T05:23:49.286Z,37.53
2019-05-14T05:26:28.545Z,40.30
2019-05-14T05:29:06.335Z,38.73
2019-05-14T05:31:34.551Z,37.53
2019-05-14T05:34:09.440Z,34.87
2019-05-14T05:36:42.235Z,37.57
2019-05-14T05:39:13.829Z,40.07
2019-05-14T05:41:49.012Z,41.00
2019-05-14T05:44:20.817Z,31.13
2019-05-14T05:46:52.544Z,32.50
2019-05-14T05:49:24.351Z,35.60
2019-05-14T05:51:59.226Z,27.97
2019-05-14T05:54:33.330Z,24.57
2019-05-14T05:57:09.246Z,28.60
2019-05-14T06:03:14.168Z,27.63
2019-05-14T06:05:29.551Z,26.07
2019-05-14T06:08:28.125Z,24.60
2019-05-14T06:10:58.902Z,23.13
2019-05-14T06:13:36.082Z,24.53
2019-05-14T06:16:10.030Z,22.97
2019-05-14T06:18:42.979Z,25.70
2019-05-14T06:21:22.005Z,24.17
2019-05-14T06:24:08.957Z,25.37
2019-05-14T06:26:58.655Z,21.23
2019-05-14T06:29:38.128Z,23.50
2019-05-14T06:32:09.826Z,21.10
2019-05-14T06:34:41.688Z,20.10
2019-05-14T06:37:13.637Z,21.30
2019-05-14T06:39:45.225Z,20.12
2019-05-14T06:42:19.267Z,21.33
2019-05-14T06:44:50.876Z,20.10
2019-05-14T06:47:25.120Z,22.37
2019-05-14T06:49:59.251Z,16.62
2019-05-14T06:52:30.462Z,20.13
2019-05-14T06:55:02.237Z,19.12
2019-05-14T06:57:33.927Z,19.32
2019-05-14T07:00:08.293Z,19.17
2019-05-14T07:02:43.744Z,16.00
2019-05-14T07:05:13.101Z,14.07
2019-05-14T07:07:49.314Z,16.82
2019-05-14T07:10:20.269Z,16.37
2019-05-14T07:12:59.161Z,14.25
2019-05-14T07:15:31.192Z,14.83
2019-05-14T07:18:13.162Z,14.87
2019-05-14T07:20:48.620Z,15.58
2019-05-14T07:23:21.544Z,13.83
2019-05-14T07:25:53.907Z,15.63
2019-05-14T07:28:28.965Z,14.80
2019-05-14T07:30:59.866Z,18.80
2019-05-14T07:33:35.215Z,15.53
2019-05-14T07:36:14.713Z,17.23
2019-05-14T07:38:51.870Z,20.85
2019-05-14T07:41:28.475Z,21.77
2019-05-14T07:44:03.093Z,22.07
2019-05-14T07:46:34.600Z,16.37
2019-05-14T07:49:11.815Z,16.50
2019-05-14T07:52:06.144Z,17.32
2019-05-14T07:54:39.113Z,17.02
2019-05-14T07:57:11.459Z,16.40
2019-05-14T07:59:44.829Z,16.67
2019-05-14T08:02:19.375Z,15.08
2019-05-14T08:04:53.243Z,15.70
2019-05-14T08:07:24.739Z,17.87
2019-05-14T08:09:58.378Z,15.03
2019-05-14T08:12:29.988Z,14.63
2019-05-14T08:15:15.273Z,13.68
2019-05-14T08:17:38.753Z,13.62
2019-05-14T08:20:18.340Z,15.72
2019-05-14T08:22:50.872Z,16.17
2019-05-14T08:25:22.812Z,13.55
2019-05-14T08:27:54.367Z,14.75
2019-05-14T08:30:28.326Z,15.68
2019-05-14T08:33:00.138Z,14.53
2019-05-14T08:35:34.075Z,16.67
2019-05-14T08:38:11.377Z,16.12
2019-05-14T08:40:43.126Z,16.75
2019-05-14T08:43:14.636Z,15.03
2019-05-14T08:45:48.459Z,16.50
2019-05-14T08:48:21.744Z,16.35
2019-05-14T08:50:53.597Z,14.65
2019-05-14T08:53:25.328Z,15.08
2019-05-14T08:55:58.936Z,15.18
2019-05-14T08:58:31.171Z,15.03
2019-05-14T09:01:02.619Z,16.40
2019-05-14T09:03:34.192Z,14.38
2019-05-14T09:06:08.923Z,16.10
2019-05-14T09:08:39.845Z,15.60
2019-05-14T09:11:11.818Z,16.00
2019-05-14T09:13:43.575Z,16.62
2019-05-14T09:16:15.579Z,15.88
2019-05-14T09:18:49.091Z,16.57
2019-05-14T09:21:29.565Z,17.30
2019-05-14T09:24:00.069Z,18.42
2019-05-14T09:26:31.817Z,16.00
2019-05-14T09:29:18.211Z,15.20
2019-05-14T09:31:39.115Z,17.87
2019-05-14T09:34:10.591Z,17.42
2019-05-14T09:36:42.476Z,17.42
2019-05-14T09:39:14.219Z,17.20
2019-05-14T09:41:48.051Z,19.02
2019-05-14T09:44:19.195Z,15.55
2019-05-14T09:46:53.311Z,17.47
2019-05-14T09:49:28.393Z,19.67
2019-05-14T09:52:00.545Z,21.07
2019-05-14T09:54:32.222Z,21.03
2019-05-14T09:57:04.224Z,21.17
2019-05-14T09:59:35.731Z,21.97
2019-05-14T10:02:09.219Z,23.07
2019-05-14T10:04:41.389Z,22.82
2019-05-14T10:07:15.789Z,26.80
2019-05-14T10:09:51.798Z,23.42
2019-05-14T10:12:23.635Z,23.50
2019-05-14T10:14:55.645Z,19.48
2019-05-14T10:17:28.962Z,19.82
2019-05-14T10:20:01.961Z,20.00
2019-05-14T10:22:34.127Z,21.73
2019-05-14T10:25:09.093Z,20.92
2019-05-14T10:27:41.015Z,20.62
2019-05-14T10:30:14.668Z,19.27
2019-05-14T10:32:49.030Z,20.20
2019-05-14T10:35:20.195Z,18.02
2019-05-14T10:37:54.901Z,19.65
2019-05-14T10:40:29.093Z,20.13
2019-05-14T10:43:00.067Z,18.77
2019-05-14T10:45:32.414Z,19.30
2019-05-14T10:48:04.553Z,18.60
2019-05-14T10:50:45.544Z,17.70
2019-05-14T10:53:09.654Z,18.40
2019-05-14T10:55:41.775Z,18.25
2019-05-14T10:58:13.451Z,19.15
2019-05-14T11:00:45.449Z,19.35
2019-05-14T11:03:18.607Z,21.35
2019-05-14T11:05:50.400Z,22.58
2019-05-14T11:08:22.525Z,20.37
2019-05-14T11:10:54.432Z,20.23
2019-05-14T11:13:28.947Z,21.23
2019-05-14T11:15:59.873Z,21.68
2019-05-14T11:18:31.832Z,20.27
2019-05-14T11:21:18.544Z,19.63
2019-05-14T11:23:38.650Z,21.67
2019-05-14T11:26:10.402Z,21.00
2019-05-14T11:28:42.794Z,22.70
2019-05-14T11:31:15.223Z,22.10
2019-05-14T11:33:49.570Z,21.03
2019-05-14T11:36:21.399Z,21.87
2019-05-14T11:38:53.100Z,23.00
2019-05-14T11:41:24.978Z,22.10
2019-05-14T11:43:59.394Z,22.10
2019-05-14T11:46:43.591Z,21.97
2019-05-14T11:49:08.872Z,22.52
2019-05-14T11:51:59.294Z,22.93
2019-05-14T11:54:14.687Z,20.90
2019-05-14T11:56:51.430Z,20.10
2019-05-14T11:59:20.598Z,21.70
2019-05-14T12:01:54.960Z,21.53
2019-05-14T12:04:28.393Z,21.83
2019-05-14T12:07:02.814Z,20.48
2019-05-14T12:09:35.825Z,19.37
2019-05-14T12:12:12.353Z,20.60
2019-05-14T12:14:41.100Z,19.40
2019-05-14T12:17:13.085Z,19.47
2019-05-14T12:19:44.719Z,31.07
2019-05-14T12:22:18.982Z,45.63
2019-05-14T12:24:50.500Z,24.37
2019-05-14T12:27:24.376Z,21.30
2019-05-14T12:29:59.659Z,48.57
2019-05-14T12:32:30.332Z,78.62
2019-05-14T12:35:02.029Z,19.48
2019-05-14T12:37:34.057Z,17.12
2019-05-14T12:40:08.807Z,20.27
2019-05-14T12:42:40.505Z,19.30
2019-05-14T12:45:12.308Z,16.33
2019-05-14T12:47:44.281Z,18.27
2019-05-14T12:50:16.719Z,16.30
2019-05-14T12:52:48.745Z,16.87
2019-05-14T12:55:20.440Z,16.42
2019-05-14T12:57:51.987Z,17.27
2019-05-14T13:00:24.165Z,16.77
2019-05-14T13:02:58.276Z,17.97
2019-05-14T13:05:29.512Z,13.50
2019-05-14T13:08:01.164Z,15.13
2019-05-14T13:10:33.812Z,34.40
2019-05-14T13:13:08.237Z,16.37
2019-05-14T13:15:39.531Z,15.50
2019-05-14T13:18:10.983Z,32.08
2019-05-14T13:20:42.720Z,54.30
2019-05-14T13:23:18.211Z,15.93
2019-05-14T13:25:50.368Z,17.37
2019-05-14T13:28:21.974Z,14.60
2019-05-14T13:30:53.400Z,16.53
2019-05-14T13:33:25.133Z,13.93
2019-05-14T13:35:59.404Z,14.73
2019-05-14T13:38:39.321Z,15.73
2019-05-14T13:41:08.661Z,15.33
2019-05-14T13:43:40.740Z,15.90
2019-05-14T13:46:14.960Z,14.03
2019-05-14T13:48:45.841Z,15.30
2019-05-14T13:51:19.538Z,13.30
2019-05-14T13:53:50.940Z,16.97
2019-05-14T13:56:22.959Z,13.80
2019-05-14T13:58:58.912Z,15.37
2019-05-14T14:01:30.064Z,16.43
2019-05-14T14:04:10.812Z,16.90
2019-05-14T14:06:35.003Z,16.90
2019-05-14T14:09:12.326Z,18.27
2019-05-14T14:11:40.799Z,16.00
2019-05-14T14:14:12.797Z,14.23
2019-05-14T14:16:44.745Z,15.80
2019-05-14T14:19:18.602Z,11.83
2019-05-14T14:21:49.954Z,16.87
2019-05-14T14:24:21.431Z,16.33
2019-05-14T14:27:00.791Z,15.37
2019-05-14T14:29:32.640Z,13.13
2019-05-14T14:32:04.553Z,12.90
2019-05-14T14:34:40.993Z,13.60
2019-05-14T14:37:10.219Z,15.33
2019-05-14T14:39:42.045Z,17.83
2019-05-14T14:42:19.592Z,17.42
2019-05-14T14:44:51.694Z,18.85
2019-05-14T14:47:23.231Z,18.53
2019-05-14T14:49:54.883Z,16.17
2019-05-14T14:52:29.099Z,13.87
2019-05-14T14:54:59.963Z,14.43
2019-05-14T14:57:31.577Z,21.80
2019-05-14T15:00:03.748Z,22.83
2019-05-14T15:02:52.925Z,16.60
2019-05-14T15:05:39.013Z,16.23
2019-05-14T15:08:10.608Z,17.27
2019-05-14T15:10:42.545Z,14.03
2019-05-14T15:13:14.276Z,15.53
2019-05-14T15:15:49.235Z,17.37
2019-05-14T15:18:19.426Z,13.47
2019-05-14T15:20:51.050Z,14.97
2019-05-14T15:23:23.163Z,14.80
2019-05-14T15:25:58.912Z,16.50
2019-05-14T15:28:38.721Z,15.27
2019-05-14T15:31:11.449Z,14.73
2019-05-14T15:33:43.334Z,17.47
2019-05-14T15:36:15.056Z,14.77
2019-05-14T15:38:48.639Z,13.73
2019-05-14T15:41:20.677Z,15.68
2019-05-14T15:43:52.454Z,17.43
2019-05-14T15:46:24.194Z,18.80
2019-05-14T15:48:59.308Z,18.80
2019-05-14T15:51:29.408Z,15.37
2019-05-14T15:54:16.074Z,32.50
2019-05-14T15:56:35.010Z,19.40
2019-05-14T15:59:10.208Z,19.33
2019-05-14T16:01:41.802Z,17.83
2019-05-14T16:04:14.868Z,20.97
2019-05-14T16:06:48.882Z,17.90
2019-05-14T16:09:23.905Z,17.33
2019-05-14T16:11:55.806Z,16.83
2019-05-14T16:14:33.437Z,21.70
2019-05-14T16:17:11.535Z,19.23
2019-05-14T16:19:43.591Z,16.83
2019-05-14T16:22:21.057Z,19.97
2019-05-14T16:24:56.936Z,17.93
2019-05-14T16:27:26.231Z,20.30
2019-05-14T16:29:59.323Z,23.03
2019-05-14T16:32:32.834Z,22.90
2019-05-14T16:35:22.619Z,26.13
2019-05-14T16:38:02.253Z,24.53
2019-05-14T16:40:36.186Z,27.30
2019-05-14T16:43:09.290Z,22.53
2019-05-14T16:45:49.058Z,23.40
2019-05-14T16:48:20.451Z,25.27
2019-05-14T16:57:31.398Z,25.57
2019-05-14T17:00:18.504Z,26.00
2019-05-14T17:02:50.954Z,28.13
2019-05-14T17:05:30.267Z,29.70
2019-05-14T17:08:19.282Z,29.00
2019-05-14T17:10:54.769Z,26.83
2019-05-14T17:13:28.551Z,29.57
2019-05-14T17:16:15.159Z,28.73
2019-05-14T17:18:55.105Z,25.67
2019-05-14T17:21:28.347Z,33.20
2019-05-14T17:24:00.694Z,30.77
2019-05-14T17:26:32.106Z,31.10
2019-05-14T17:29:04.100Z,32.37
2019-05-14T17:31:38.849Z,30.67
2019-05-14T17:34:09.383Z,26.87
2019-05-14T17:36:41.420Z,31.57
2019-05-14T17:39:13.273Z,24.93
2019-05-14T17:41:45.450Z,24.27
2019-05-14T17:44:19.042Z,26.47
2019-05-14T17:46:50.465Z,26.50
2019-05-14T17:49:24.259Z,31.53
2019-05-14T17:51:57.979Z,23.90
2019-05-14T17:54:30.984Z,22.87
2019-05-14T17:57:03.221Z,28.30
2019-05-14T17:59:34.895Z,19.07
2019-05-14T18:02:08.671Z,24.13
2019-05-14T18:04:40.408Z,22.40
2019-05-14T18:07:12.230Z,18.63
2019-05-14T18:09:44.360Z,21.13
2019-05-14T18:12:20.760Z,19.57
2019-05-14T18:15:21.335Z,14.40
2019-05-14T18:17:53.077Z,16.83
2019-05-14T18:20:24.995Z,22.67
2019-05-14T18:22:58.319Z,17.13
2019-05-14T18:25:33.503Z,17.20
2019-05-14T18:28:25.550Z,20.63
2019-05-14T18:30:58.589Z,19.73
2019-05-14T18:33:32.688Z,21.50
2019-05-14T18:36:08.889Z,24.50
2019-05-14T18:38:39.225Z,27.17
2019-05-14T18:41:10.820Z,30.87
2019-05-14T18:43:46.587Z,30.33
2019-05-14T18:46:21.742Z,28.53
2019-05-14T18:48:53.510Z,31.90
2019-05-14T18:51:28.760Z,30.27
2019-05-14T18:54:00.702Z,33.37
2019-05-14T18:56:34.336Z,33.87
2019-05-14T18:59:08.753Z,38.23
2019-05-14T19:01:40.026Z,34.60
2019-05-14T19:04:12.732Z,30.83
2019-05-14T19:06:44.727Z,40.67
2019-05-14T19:09:18.634Z,31.53
2019-05-14T19:11:51.530Z,36.73
2019-05-14T19:14:23.075Z,32.17
2019-05-14T19:16:55.104Z,35.07
2019-05-14T19:19:26.704Z,32.13
2019-05-14T19:21:58.666Z,37.20
2019-05-14T19:24:30.403Z,35.37
2019-05-14T19:27:01.922Z,38.37
2019-05-14T19:29:33.677Z,29.70
2019-05-14T19:32:08.248Z,35.70
2019-05-14T19:34:38.649Z,41.13
2019-05-14T19:37:10.293Z,43.63
2019-05-14T19:39:42.125Z,33.10
2019-05-14T19:42:14.427Z,35.73
2019-05-14T19:44:48.297Z,33.30
2019-05-14T19:47:19.883Z,33.47
2019-05-14T19:49:52.349Z,32.03
2019-05-14T19:52:24.101Z,40.10
2019-05-14T19:54:56.141Z,37.10
2019-05-14T19:57:29.088Z,29.00
2019-05-14T20:00:01.146Z,30.67
2019-05-14T20:02:32.711Z,37.67
2019-05-14T20:05:05.669Z,34.43
2019-05-14T20:07:39.062Z,36.97
2019-05-14T20:10:11.447Z,33.97
2019-05-14T20:12:43.082Z,38.00
2019-05-14T20:15:15.286Z,34.97
2019-05-14T20:17:49.065Z,34.90
2019-05-14T20:20:20.797Z,30.50
2019-05-14T20:22:52.872Z,34.23
2019-05-14T20:25:24.605Z,31.57
2019-05-14T20:27:58.582Z,33.93
2019-05-14T20:30:29.970Z,25.43
2019-05-14T20:33:05.268Z,29.57
2019-05-14T20:35:37.271Z,27.53
2019-05-14T20:38:09.228Z,29.40
2019-05-14T20:40:41.314Z,33.10
2019-05-14T20:43:13.042Z,28.03
2019-05-14T20:45:45.553Z,26.73
2019-05-14T20:48:18.810Z,31.40
2019-05-14T20:50:50.837Z,30.57
2019-05-14T20:53:22.599Z,27.60
2019-05-14T20:55:54.930Z,30.90
2019-05-14T20:58:27.909Z,30.60
2019-05-14T21:01:00.042Z,28.60
2019-05-14T21:03:31.927Z,36.80
2019-05-14T21:06:03.439Z,32.47
2019-05-14T21:08:35.001Z,33.87
2019-05-14T21:11:08.271Z,31.97
2019-05-14T21:13:40.128Z,30.10
2019-05-14T21:16:11.918Z,32.80
2019-05-14T21:18:44.852Z,31.27
2019-05-14T21:21:18.538Z,33.97
2019-05-14T21:23:50.954Z,34.63
2019-05-14T21:26:22.728Z,29.60
2019-05-14T21:28:54.717Z,28.90
2019-05-14T21:31:28.383Z,32.37
2019-05-14T21:34:00.981Z,34.10
2019-05-14T21:36:33.037Z,33.27
2019-05-14T21:39:07.943Z,38.30
2019-05-14T21:41:39.799Z,33.30
2019-05-14T21:44:11.363Z,31.80
2019-05-14T21:46:43.324Z,27.43
2019-05-14T21:49:15.528Z,37.90
2019-05-14T21:51:48.316Z,24.87
2019-05-14T21:54:20.555Z,39.93
2019-05-14T21:56:52.454Z,34.77
2019-05-14T21:59:24.336Z,31.93
2019-05-14T22:01:58.874Z,26.87
2019-05-14T22:04:30.349Z,34.20
2019-05-14T22:07:02.017Z,36.77
2019-05-14T22:14:43.662Z,29.40
2019-05-14T22:17:15.580Z,29.57
2019-05-14T22:19:49.088Z,27.27
2019-05-14T22:22:21.598Z,24.90
2019-05-14T22:24:53.190Z,27.83
2019-05-14T22:27:25.368Z,27.10
2019-05-14T22:29:58.657Z,29.50
2019-05-14T22:32:30.933Z,26.43
2019-05-14T22:35:02.654Z,27.83
2019-05-14T22:37:34.310Z,33.20
2019-05-14T22:40:06.863Z,32.43
2019-05-14T22:42:39.424Z,30.57
2019-05-14T22:45:11.297Z,35.10
2019-05-14T22:47:43.286Z,32.20
2019-05-14T22:50:14.993Z,36.23
2019-05-14T22:52:48.669Z,32.20
2019-05-14T22:55:20.896Z,31.60
2019-05-14T22:57:54.211Z,40.17
2019-05-14T23:00:28.634Z,34.00
2019-05-14T23:03:00.582Z,36.03
2019-05-14T23:05:32.918Z,38.47
2019-05-14T23:08:05.283Z,35.03
2019-05-14T23:10:38.909Z,39.13
2019-05-14T23:13:10.337Z,33.07
2019-05-14T23:15:42.454Z,29.27
2019-05-14T23:18:14.614Z,29.47
2019-05-14T23:20:49.143Z,26.97
2019-05-14T23:23:21.214Z,28.97
2019-05-14T23:25:54.713Z,24.37
2019-05-14T23:28:39.529Z,22.10
2019-05-14T23:30:59.986Z,24.00
2019-05-14T23:33:32.244Z,21.17
2019-05-14T23:36:04.264Z,25.43
2019-05-14T23:38:38.435Z,23.17
2019-05-14T23:41:09.449Z,21.23
2019-05-14T23:43:41.065Z,21.57
2019-05-14T23:46:13.090Z,21.17
2019-05-14T23:48:45.434Z,20.63
2019-05-14T23:51:18.210Z,21.63
2019-05-14T23:53:50.376Z,18.37
2019-05-14T23:56:21.932Z,18.03
2019-05-14T23:58:57.889Z,18.47
